Tampa International Airport
KTPA : now visible

Airfield :











YOU CAN JOIN US ON...

 
LOGIN :

Register | Disclaimer

   EN    FR    IT 

 









Legend :    VFR   Marginal VFR   IFR   Intensive IFR   Very Intensive IFR
Visi :
Ceiling :
>= 8 km
>= 3000ft
5 to 8 km
1000 to 3000 ft
1500m to 5 km
500 to 1000 ft
800 to 1500m
200 to 500 ft
< 800m
< 200 ft
Symbols :   Thunderstorms  Fog  Heavy snow  Heavy precipitations  Wind > 20 kt






- Airport Elevation : 26 ft
- IATA code : TPA


KTPA - Tampa International

CURRENT METAR :
  • 241853Z 27007KT 10SM SCT050CB BKN180 BKN300 32/21 A3002 RMK AO2 SLP164 CB N MOV NW TCU SE AND W T03170206

EXPIRED METARs :
  • 241753Z 22010G16KT 10SM SCT055TCU BKN300 33/20 A3004 RMK AO2 SLP172 TCU ALQDS T03280200 10339 20267 58005
  • 241653Z 15007KT 10SM SCT047TCU SCT300 32/19 A3006 RMK AO2 SLP177 TCU ALQDS T03220194

TAF KTPA
Valid from the 24 at 18:00 until the 26 at 00:00 UTC


241728Z 2418/2524 17008KT P6SM SCT040 BKN200
FM242100 26009KT P6SM SCT040 BKN200
FM250200 13005KT P6SM SCT200
FM251400 16010KT P6SM SCT040 BKN200
KZJX FIR / North America



MET'MAP, your aeronautical weather chart ! - Copyright ORBIFLY December 2007 - Disclaimer

ORBIFLY MET'MAP TEAM :

Programming & Development : Alexandra Zaïnal
Original concept : Baudouin d'Aumeries
Technical & hardware support : Manuel Goepfert
Assistance : Marc-Olivier Méhu

Contact : metmap@orbifly.com




SOURCES & CREDITS :

   NOAA       Earth
Advisory